createdAt,value
2023-11-30T00:12:15.875Z,99807.59
2023-11-30T00:27:18.109Z,99799.91
2023-11-30T00:42:20.205Z,99858.25
2023-11-30T00:57:22.408Z,99833.13
2023-11-30T01:12:28.195Z,99872.44
2023-11-30T01:27:31.366Z,99884.88
2023-11-30T01:42:33.397Z,99899.75
2023-11-30T01:57:36.471Z,99919.41
2023-11-30T02:12:38.695Z,99902.97
2023-11-30T02:27:40.757Z,99930.41
2023-11-30T02:42:42.723Z,99948.84
2023-11-30T02:57:44.708Z,99972.44
2023-11-30T03:12:47.036Z,99969.72
2023-11-30T03:27:49.107Z,100001.38
2023-11-30T03:42:51.093Z,100000.66
2023-11-30T03:57:53.115Z,100035.31
2023-11-30T04:12:55.707Z,100051.19
2023-11-30T04:27:57.758Z,100049.94
2023-11-30T04:42:59.917Z,100086.28
2023-11-30T04:58:04.664Z,100103.13
2023-11-30T05:13:06.946Z,100113.22
2023-11-30T05:28:08.992Z,100116.69
2023-11-30T05:43:10.970Z,100137.84
2023-11-30T05:58:13.033Z,100162.50
2023-11-30T06:13:17.148Z,100170.97
2023-11-30T06:28:21.189Z,100203.28
2023-11-30T06:43:23.718Z,100219.38
2023-11-30T06:58:25.726Z,100231.06
2023-11-30T07:13:28.050Z,100263.63
2023-11-30T07:28:30.120Z,100310.09
2023-11-30T07:43:36.167Z,100329.84
2023-11-30T07:59:14.402Z,100343.75
2023-11-30T08:14:20.955Z,100348.84
2023-11-30T08:29:23.369Z,100349.88
2023-11-30T08:44:26.092Z,100344.38
2023-11-30T08:59:28.257Z,100353.78
2023-11-30T09:14:32.400Z,100342.59
2023-11-30T09:29:37.893Z,100350.00
2023-11-30T09:44:40.104Z,100347.97
2023-11-30T09:59:42.551Z,100367.28
2023-11-30T10:14:45.181Z,100370.59
2023-11-30T10:29:49.998Z,100383.03
2023-11-30T10:44:54.944Z,100368.50
2023-11-30T11:00:01.477Z,100386.59
2023-11-30T11:15:14.401Z,100398.72
2023-11-30T11:30:18.704Z,100422.44
2023-11-30T11:45:22.567Z,100421.94
2023-11-30T12:00:26.093Z,100430.44
2023-11-30T12:15:30.945Z,100445.16
2023-11-30T12:30:34.112Z,100463.19
2023-11-30T12:45:36.339Z,100500.66
2023-11-30T13:00:38.551Z,100499.81
2023-11-30T13:15:42.151Z,100503.41
2023-11-30T13:30:44.308Z,100511.22
2023-11-30T13:45:51.269Z,100528.75
2023-11-30T14:00:53.801Z,100545.13
2023-11-30T14:15:56.167Z,100552.47
2023-11-30T14:30:59.126Z,100546.34
2023-11-30T14:46:01.982Z,100555.66
2023-11-30T15:01:04.492Z,100564.16
2023-11-30T15:16:06.933Z,100557.97
2023-11-30T15:31:46.787Z,100568.78
2023-11-30T15:46:49.011Z,100537.13
2023-11-30T16:01:51.207Z,100567.59
2023-11-30T16:16:55.111Z,100577.22
2023-11-30T16:32:38.789Z,100599.91
2023-11-30T16:47:41.091Z,100607.28
2023-11-30T17:02:43.328Z,100602.69
2023-11-30T17:17:49.707Z,100581.81
2023-11-30T17:32:52.553Z,100562.94
2023-11-30T17:47:56.308Z,100560.59
2023-11-30T18:18:19.964Z,100511.25
2023-11-30T18:33:22.640Z,100511.88
2023-11-30T18:48:24.714Z,100516.09
2023-11-30T19:03:26.816Z,100528.63
2023-11-30T19:18:29.691Z,100512.94
2023-11-30T19:33:32.982Z,100546.31
2023-11-30T19:48:35.089Z,100540.19
2023-11-30T20:03:37.655Z,100540.03
2023-11-30T20:18:40.140Z,100511.38
2023-11-30T20:33:42.431Z,100527.25
2023-11-30T20:48:44.875Z,100531.31
2023-11-30T21:03:47.097Z,100523.56
2023-11-30T21:18:51.670Z,100504.91
2023-11-30T21:33:53.702Z,100469.91
2023-11-30T21:48:55.860Z,100454.31
2023-11-30T22:03:58.059Z,100447.91
2023-11-30T22:19:01.312Z,100435.56
2023-11-30T22:34:03.403Z,100390.22
2023-11-30T22:49:05.573Z,100394.47
2023-11-30T23:04:07.767Z,100340.16
2023-11-30T23:19:10.218Z,100341.00
2023-11-30T23:34:12.806Z,100346.38
2023-11-30T23:49:14.857Z,100325.25
